createdAt,value
2022-09-05T00:00:19.851Z,101297.44
2022-09-05T00:03:00.388Z,101291.22
2022-09-05T00:06:01.915Z,101294.72
2022-09-05T00:08:39.781Z,101303.63
2022-09-05T00:11:41.934Z,101301.94
2022-09-05T00:15:14.401Z,101308.94
2022-09-05T00:20:16.810Z,101307.78
2022-09-05T00:24:23.091Z,101302.72
2022-09-05T00:24:34.795Z,101300.69
2022-09-05T00:27:08.764Z,101307.53
2022-09-05T00:31:08.827Z,101307.59
2022-09-05T00:32:55.243Z,101304.09
2022-09-05T00:35:33.854Z,101305.66
2022-09-05T00:38:13.230Z,101303.81
2022-09-05T00:40:45.440Z,101302.16
2022-09-05T00:43:18.153Z,101306.69
2022-09-05T00:46:04.096Z,101301.47
2022-09-05T00:48:44.314Z,101304.19
2022-09-05T00:51:38.857Z,101302.41
2022-09-05T00:54:37.473Z,101295.22
2022-09-05T00:57:45.564Z,101293.34
2022-09-05T01:00:17.010Z,101296.84
2022-09-05T01:03:11.452Z,101296.03
2022-09-05T01:05:54.680Z,101290.09
2022-09-05T01:08:44.375Z,101284.69
2022-09-05T01:11:20.004Z,101291.59
2022-09-05T01:13:59.518Z,101291.56
2022-09-05T01:16:42.679Z,101296.88
2022-09-05T01:19:30.347Z,101295.16
2022-09-05T01:22:24.782Z,101289.78
2022-09-05T01:25:12.704Z,101294.31
2022-09-05T01:29:15.151Z,101296.34
2022-09-05T01:30:48.646Z,101292.97
2022-09-05T01:33:25.344Z,101303.41
2022-09-05T01:36:39.838Z,101295.63
2022-09-05T01:40:11.434Z,101293.69
2022-09-05T01:42:38.210Z,101294.59
2022-09-05T01:45:09.391Z,101290.34
2022-09-05T01:47:41.903Z,101291.19
2022-09-05T01:50:12.083Z,101292.97
2022-09-05T01:52:59.713Z,101293.09
2022-09-05T01:56:04.943Z,101293.91
2022-09-05T01:58:55.941Z,101294.03
2022-09-05T02:01:53.360Z,101289.78
2022-09-05T02:04:44.141Z,101300.31
2022-09-05T02:10:38.451Z,101291.75
2022-09-05T02:13:13.611Z,101284.69
2022-09-05T02:16:15.467Z,101292.56
2022-09-05T02:19:09.099Z,101293.47
2022-09-05T02:21:56.597Z,101298.75
2022-09-05T02:24:45.906Z,101293.50
2022-09-05T02:27:31.855Z,101300.66
2022-09-05T02:30:09.016Z,101299.81
2022-09-05T02:32:51.109Z,101302.41
2022-09-05T02:35:45.977Z,101285.81
2022-09-05T02:40:51.966Z,101289.22
2022-09-05T02:45:12.045Z,101288.47
2022-09-05T02:45:19.933Z,101294.53
2022-09-05T02:47:30.485Z,101293.88
2022-09-05T02:51:12.778Z,101294.78
2022-09-05T02:57:34.040Z,101284.34
2022-09-05T02:57:39.466Z,101292.09
2022-09-05T02:59:36.597Z,101289.63
2022-09-05T03:02:41.679Z,101291.41
2022-09-05T03:05:08.111Z,101300.19
2022-09-05T03:08:13.454Z,101290.47
2022-09-05T03:11:04.023Z,101294.75
2022-09-05T03:14:09.526Z,101303.53
2022-09-05T03:16:51.029Z,101292.13
2022-09-05T03:19:55.414Z,101294.88
2022-09-05T03:22:59.621Z,101299.28
2022-09-05T03:25:50.886Z,101298.41
2022-09-05T03:28:32.631Z,101306.41
2022-09-05T03:31:23.917Z,101305.63
2022-09-05T03:34:08.704Z,101295.09
2022-09-05T03:37:00.424Z,101303.88
2022-09-05T03:39:45.114Z,101300.63
2022-09-05T03:42:30.450Z,101297.19
2022-09-05T03:45:16.162Z,101310.38
2022-09-05T03:48:33.685Z,101307.88
2022-09-05T03:57:06.563Z,101311.31
2022-09-05T03:57:15.452Z,101301.72
2022-09-05T03:57:38.624Z,101313.94
2022-09-05T04:00:22.759Z,101302.56
2022-09-05T04:08:10.687Z,101311.38
2022-09-05T04:08:14.569Z,101313.13
2022-09-05T04:09:04.343Z,101310.50
2022-09-05T04:11:37.590Z,101311.41
2022-09-05T04:14:13.336Z,101311.38
2022-09-05T04:16:55.259Z,101307.00
2022-09-05T04:19:33.222Z,101321.91
2022-09-05T04:22:19.396Z,101319.22
2022-09-05T04:25:10.772Z,101324.47
2022-09-05T04:27:37.187Z,101332.34
2022-09-05T04:30:38.040Z,101333.25
2022-09-05T04:33:23.422Z,101330.63
2022-09-05T04:36:25.823Z,101315.09
2022-09-05T04:39:21.724Z,101334.34
2022-09-05T04:42:06.740Z,101336.97
2022-09-05T04:44:55.656Z,101332.50
2022-09-05T04:47:30.492Z,101320.19
2022-09-05T04:50:13.173Z,101325.50
2022-09-05T04:53:04.202Z,101338.50
2022-09-05T04:55:41.385Z,101339.44
2022-09-05T04:58:30.995Z,101341.13
2022-09-05T05:06:05.267Z,101337.59
2022-09-05T05:06:13.108Z,101346.47
2022-09-05T05:07:44.913Z,101351.59
2022-09-05T05:13:09.061Z,101348.09
2022-09-05T05:17:59.252Z,101350.72
2022-09-05T05:17:59.776Z,101346.28
2022-09-05T05:19:22.041Z,101354.97
2022-09-05T05:22:01.235Z,101349.69
2022-09-05T05:24:32.682Z,101360.19
2022-09-05T05:27:18.944Z,101361.94
2022-09-05T05:29:54.071Z,101354.97
2022-09-05T05:32:44.835Z,101361.94
2022-09-05T05:35:16.208Z,101361.94
2022-09-05T05:37:45.451Z,101363.81
2022-09-05T05:40:18.683Z,101364.59
2022-09-05T05:42:46.508Z,101367.22
2022-09-05T05:45:28.512Z,101369.66
2022-09-05T05:48:01.847Z,101361.66
2022-09-05T05:51:03.253Z,101368.63
2022-09-05T05:53:43.428Z,101359.78
2022-09-05T05:57:01.493Z,101371.06
2022-09-05T05:59:56.413Z,101374.59
2022-09-05T06:02:29.275Z,101375.53
2022-09-05T06:05:13.798Z,101376.34
2022-09-05T06:08:29.142Z,101372.72
2022-09-05T06:14:52.939Z,101378.88
2022-09-05T06:14:58.126Z,101377.72
2022-09-05T06:17:28.089Z,101382.97
2022-09-05T06:22:10.884Z,101377.00
2022-09-05T06:23:39.113Z,101378.63
2022-09-05T06:26:24.805Z,101383.00
2022-09-05T06:28:55.415Z,101376.97
2022-09-05T06:31:30.732Z,101375.97
2022-09-05T06:34:29.544Z,101382.06
2022-09-05T06:37:09.709Z,101392.66
2022-09-05T06:40:09.800Z,101381.06
2022-09-05T06:42:43.955Z,101392.13
2022-09-05T06:45:27.068Z,101397.09
2022-09-05T06:48:23.934Z,101383.63
2022-09-05T06:51:33.440Z,101391.19
2022-09-05T06:54:27.158Z,101371.53
2022-09-05T06:57:12.328Z,101381.06
2022-09-05T07:00:22.136Z,101392.34
2022-09-05T07:03:22.736Z,101393.91
2022-09-05T07:06:00.399Z,101394.72
2022-09-05T07:08:45.410Z,101391.84
2022-09-05T07:11:20.842Z,101398.88
2022-09-05T07:14:28.406Z,101397.34
2022-09-05T07:17:38.193Z,101394.59
2022-09-05T07:20:26.055Z,101396.22
2022-09-05T07:23:38.292Z,101391.41
2022-09-05T07:25:59.517Z,101397.09
2022-09-05T07:28:29.104Z,101398.50
2022-09-05T07:31:06.441Z,101394.72
2022-09-05T07:33:35.259Z,101394.72
2022-09-05T07:36:21.633Z,101401.81
2022-09-05T07:39:12.293Z,101385.81
2022-09-05T07:41:51.178Z,101390.53
2022-09-05T07:44:29.599Z,101391.09
2022-09-05T07:47:08.117Z,101393.81
2022-09-05T07:49:45.616Z,101388.13
2022-09-05T07:56:55.497Z,101398.09
2022-09-05T07:57:01.957Z,101387.53
2022-09-05T07:58:21.733Z,101403.09
2022-09-05T08:00:54.819Z,101401.63
2022-09-05T08:03:29.305Z,101381.59
2022-09-05T08:06:00.424Z,101397.59
2022-09-05T08:09:18.114Z,101399.34
2022-09-05T08:11:36.533Z,101401.03
2022-09-05T08:14:44.601Z,101401.19
2022-09-05T08:17:01.138Z,101398.69
2022-09-05T08:19:40.191Z,101397.44
2022-09-05T08:22:10.484Z,101396.13
2022-09-05T08:24:45.918Z,101398.38
2022-09-05T08:27:20.158Z,101395.25
2022-09-05T08:30:25.739Z,101395.41
2022-09-05T08:33:11.259Z,101402.00
2022-09-05T08:35:47.074Z,101390.50
2022-09-05T08:38:18.737Z,101394.75
2022-09-05T08:40:54.969Z,101394.06
2022-09-05T08:46:37.151Z,101390.56
2022-09-05T08:46:49.345Z,101391.38
2022-09-05T08:49:41.348Z,101380.59
2022-09-05T08:52:32.115Z,101390.13
2022-09-05T08:55:20.388Z,101378.44
2022-09-05T08:57:59.157Z,101382.00
2022-09-05T09:00:32.482Z,101375.84
2022-09-05T09:03:07.918Z,101361.16
2022-09-05T09:06:15.827Z,101371.38
2022-09-05T09:09:01.041Z,101365.13
2022-09-05T09:11:36.600Z,101366.44
2022-09-05T09:14:30.914Z,101359.00
2022-09-05T09:17:21.906Z,101353.59
2022-09-05T09:20:30.923Z,101356.28
2022-09-05T09:23:09.340Z,101355.06
2022-09-05T09:26:11.860Z,101345.06
2022-09-05T09:28:50.507Z,101346.88
2022-09-05T09:31:25.148Z,101337.00
2022-09-05T09:33:58.784Z,101339.69
2022-09-05T09:37:02.517Z,101341.50
2022-09-05T09:40:03.144Z,101333.13
2022-09-05T09:42:51.389Z,101333.09
2022-09-05T09:45:42.910Z,101336.75
2022-09-05T09:48:47.198Z,101333.66
2022-09-05T09:51:26.933Z,101326.94
2022-09-05T09:54:06.925Z,101329.09
2022-09-05T09:56:52.382Z,101326.25
2022-09-05T09:59:31.669Z,101329.53
2022-09-05T10:03:36.343Z,101322.72
2022-09-05T10:10:38.391Z,101327.66
2022-09-05T10:10:45.154Z,101323.59
2022-09-05T10:12:06.303Z,101318.88
2022-09-05T10:14:49.145Z,101318.69
2022-09-05T10:17:55.197Z,101320.66
2022-09-05T10:20:29.280Z,101321.72
2022-09-05T10:23:05.345Z,101315.38
2022-09-05T10:26:00.881Z,101307.09
2022-09-05T10:28:55.717Z,101306.63
2022-09-05T10:35:14.641Z,101305.97
2022-09-05T10:35:34.502Z,101310.56
2022-09-05T10:38:21.115Z,101308.03
2022-09-05T10:41:20.251Z,101308.63
2022-09-05T10:43:55.513Z,101308.00
2022-09-05T10:46:56.174Z,101307.53
2022-09-05T10:49:30.415Z,101299.44
2022-09-05T10:52:17.987Z,101293.75
2022-09-05T10:55:14.176Z,101284.47
2022-09-05T10:57:57.345Z,101285.06
2022-09-05T11:02:21.037Z,101270.31
2022-09-05T11:03:36.944Z,101280.47
2022-09-05T11:06:10.148Z,101279.84
2022-09-05T11:08:45.159Z,101273.97
2022-09-05T11:11:33.945Z,101281.38
2022-09-05T11:14:27.182Z,101263.09
2022-09-05T11:17:06.135Z,101269.56
2022-09-05T11:19:45.074Z,101272.00
2022-09-05T11:22:24.031Z,101269.69
2022-09-05T11:24:50.876Z,101268.13
2022-09-05T11:27:35.878Z,101265.97
2022-09-05T11:30:08.097Z,101254.63
2022-09-05T11:38:43.971Z,101263.25
2022-09-05T11:40:00.421Z,101248.56
2022-09-05T11:40:05.509Z,101251.50
2022-09-05T11:41:59.226Z,101248.56
2022-09-05T11:44:34.704Z,101246.50
2022-09-05T11:47:29.906Z,101240.66
2022-09-05T11:50:28.886Z,101241.06
2022-09-05T11:53:17.838Z,101241.59
2022-09-05T11:56:03.642Z,101239.00
2022-09-05T11:58:49.227Z,101230.13
2022-09-05T12:01:41.312Z,101234.72
2022-09-05T12:04:28.497Z,101236.44
2022-09-05T12:07:30.503Z,101230.44
2022-09-05T12:10:47.389Z,101223.69
2022-09-05T12:13:21.900Z,101216.84
2022-09-05T12:16:07.533Z,101220.25
2022-09-05T12:19:06.177Z,101211.66
2022-09-05T12:22:18.415Z,101221.06
2022-09-05T12:25:27.431Z,101219.34
2022-09-05T12:28:28.565Z,101212.81
2022-09-05T12:31:07.082Z,101202.91
2022-09-05T12:36:02.886Z,101209.63
2022-09-05T12:40:04.959Z,101203.59
2022-09-05T12:40:58.091Z,101207.63
2022-09-05T12:42:56.057Z,101207.72
2022-09-05T12:45:50.224Z,101202.53
2022-09-05T12:48:41.370Z,101206.03
2022-09-05T12:51:44.926Z,101201.94
2022-09-05T12:54:29.893Z,101202.84
2022-09-05T13:00:58.595Z,101201.69
2022-09-05T13:03:04.682Z,101188.81
2022-09-05T13:03:28.820Z,101192.31
2022-09-05T13:05:52.093Z,101193.63
2022-09-05T13:08:23.722Z,101193.94
2022-09-05T13:14:47.882Z,101193.81
2022-09-05T13:14:58.324Z,101197.97
2022-09-05T13:17:01.215Z,101195.56
2022-09-05T13:19:37.727Z,101187.72
2022-09-05T13:22:05.939Z,101189.97
2022-09-05T13:24:41.335Z,101185.84
2022-09-05T13:27:15.947Z,101189.41
2022-09-05T13:31:56.317Z,101193.63
2022-09-05T13:37:59.371Z,101184.34
2022-09-05T13:38:11.132Z,101183.63
2022-09-05T13:38:47.645Z,101193.06
2022-09-05T13:41:34.712Z,101181.91
2022-09-05T13:44:25.062Z,101183.56
2022-09-05T13:47:02.560Z,101175.09
2022-09-05T13:50:24.300Z,101173.75
2022-09-05T13:52:56.891Z,101174.06
2022-09-05T13:55:28.432Z,101166.28
2022-09-05T13:58:07.153Z,101159.75
2022-09-05T14:00:38.552Z,101150.25
2022-09-05T14:03:37.666Z,101159.59
2022-09-05T14:06:36.651Z,101161.81
2022-09-05T14:12:05.934Z,101151.41
2022-09-05T14:15:08.817Z,101132.69
2022-09-05T14:18:20.618Z,101140.41
2022-09-05T14:21:18.131Z,101131.47
2022-09-05T14:23:58.876Z,101127.16
2022-09-05T14:26:50.671Z,101127.59
2022-09-05T14:29:31.141Z,101121.66
2022-09-05T14:37:37.407Z,101130.06
2022-09-05T14:37:48.610Z,101121.88
2022-09-05T14:38:22.114Z,101107.47
2022-09-05T14:41:09.826Z,101119.28
2022-09-05T14:44:07.824Z,101109.38
2022-09-05T14:46:45.243Z,101118.84
2022-09-05T14:49:30.051Z,101116.28
2022-09-05T14:51:58.414Z,101116.09
2022-09-05T15:02:09.622Z,101119.84
2022-09-05T15:02:51.984Z,101114.78
2022-09-05T15:03:04.661Z,101114.97
2022-09-05T15:05:31.957Z,101106.47
2022-09-05T15:08:16.328Z,101113.03
2022-09-05T15:12:16.181Z,101111.09
2022-09-05T15:14:02.496Z,101103.56
2022-09-05T15:16:30.370Z,101094.44
2022-09-05T15:18:58.434Z,101103.38
2022-09-05T15:21:34.722Z,101105.94
2022-09-05T15:24:23.772Z,101099.50
2022-09-05T15:26:59.227Z,101111.38
2022-09-05T15:29:31.002Z,101093.44
2022-09-05T15:32:23.332Z,101100.72
2022-09-05T15:34:56.104Z,101088.25
2022-09-05T15:37:38.687Z,101088.16
2022-09-05T15:40:22.415Z,101084.09
2022-09-05T15:42:55.313Z,101092.94
2022-09-05T15:45:37.221Z,101089.13
2022-09-05T15:48:06.638Z,101088.06
2022-09-05T15:50:55.986Z,101085.59
2022-09-05T15:53:36.652Z,101077.00
2022-09-05T15:56:18.727Z,101072.25
2022-09-05T15:58:54.846Z,101086.78
2022-09-05T16:01:59.209Z,101081.94
2022-09-05T16:06:56.573Z,101079.88
2022-09-05T16:10:36.098Z,101077.13
2022-09-05T16:10:50.407Z,101080.31
2022-09-05T16:13:12.044Z,101080.31
2022-09-05T16:20:31.598Z,101074.25
2022-09-05T16:23:24.445Z,101062.47
2022-09-05T16:23:34.072Z,101067.66
2022-09-05T16:24:58.065Z,101074.94
2022-09-05T16:27:43.559Z,101068.63
2022-09-05T16:30:15.383Z,101063.25
2022-09-05T16:32:51.098Z,101069.22
2022-09-05T16:35:18.931Z,101070.06
2022-09-05T16:37:59.773Z,101066.72
2022-09-05T16:40:31.383Z,101057.31
2022-09-05T16:43:03.550Z,101061.34
2022-09-05T16:45:50.290Z,101058.06
2022-09-05T16:48:33.542Z,101059.63
2022-09-05T16:51:24.704Z,101055.69
2022-09-05T16:54:11.193Z,101050.16
2022-09-05T16:56:52.462Z,101055.19
2022-09-05T16:59:26.442Z,101048.69
2022-09-05T17:02:19.739Z,101049.66
2022-09-05T17:05:04.757Z,101050.31
2022-09-05T17:07:45.176Z,101046.09
2022-09-05T17:10:20.480Z,101039.41
2022-09-05T17:12:51.996Z,101033.09
2022-09-05T17:15:51.996Z,101026.91
2022-09-05T17:18:25.036Z,101038.16
2022-09-05T17:20:59.471Z,101040.91
2022-09-05T17:29:16.980Z,101030.28
2022-09-05T17:29:46.907Z,101025.19
2022-09-05T17:31:25.228Z,101021.19
2022-09-05T17:32:48.086Z,101020.75
2022-09-05T17:35:42.117Z,101020.84
2022-09-05T17:38:25.095Z,101015.28
2022-09-05T17:41:24.082Z,101025.25
2022-09-05T17:43:58.000Z,101021.56
2022-09-05T17:46:28.957Z,101011.28
2022-09-05T17:49:17.887Z,101025.16
2022-09-05T17:51:51.531Z,101030.47
2022-09-05T17:54:37.648Z,101020.31
2022-09-05T17:57:29.669Z,101027.03
2022-09-05T18:00:04.103Z,101004.59
2022-09-05T18:02:54.387Z,101023.91
2022-09-05T18:06:03.666Z,101014.59
2022-09-05T18:08:45.587Z,101018.75
2022-09-05T18:11:26.117Z,101018.56
2022-09-05T18:13:59.185Z,101026.34
2022-09-05T18:16:42.077Z,101009.06
2022-09-05T18:22:28.555Z,101017.34
2022-09-05T18:25:28.261Z,101026.75
2022-09-05T18:28:04.867Z,101020.19
2022-09-05T18:33:53.728Z,101038.38
2022-09-05T18:35:56.657Z,101042.47
2022-09-05T18:38:51.436Z,101044.53
2022-09-05T18:41:23.203Z,101038.69
2022-09-05T18:44:12.111Z,101033.19
2022-09-05T18:46:48.765Z,101043.94
2022-09-05T18:50:22.104Z,101047.16
2022-09-05T18:52:23.716Z,101044.13
2022-09-05T18:55:46.369Z,101042.09
2022-09-05T18:57:48.627Z,101036.38
2022-09-05T19:00:24.662Z,101041.91
2022-09-05T19:03:07.672Z,101044.44
2022-09-05T19:06:02.848Z,101032.69
2022-09-05T19:08:48.947Z,101051.38
2022-09-05T19:11:28.742Z,101046.91
2022-09-05T19:14:14.227Z,101056.16
2022-09-05T19:16:48.502Z,101044.03
2022-09-05T19:19:24.437Z,101040.97
2022-09-05T19:22:42.287Z,101049.38
2022-09-05T19:24:46.852Z,101041.59
2022-09-05T19:29:15.626Z,101046.72
2022-09-05T19:36:53.409Z,101045.59
2022-09-05T19:36:57.368Z,101044.34
2022-09-05T19:37:22.201Z,101047.56
2022-09-05T19:38:31.150Z,101050.81
2022-09-05T19:47:26.368Z,101035.72
2022-09-05T19:47:35.188Z,101044.81
2022-09-05T19:47:40.839Z,101046.84
2022-09-05T19:50:11.802Z,101034.03
2022-09-05T19:52:39.545Z,101036.31
2022-09-05T19:55:23.209Z,101038.63
2022-09-05T19:57:55.650Z,101035.44
2022-09-05T20:00:42.007Z,101026.34
2022-09-05T20:03:20.524Z,101041.94
2022-09-05T20:05:50.492Z,101045.47
2022-09-05T20:08:33.196Z,101034.81
2022-09-05T20:11:04.692Z,101039.84
2022-09-05T20:13:31.558Z,101032.16
2022-09-05T20:16:01.572Z,101023.03
2022-09-05T20:18:42.472Z,101024.88
2022-09-05T20:21:11.416Z,101021.47
2022-09-05T20:23:53.895Z,101022.13
2022-09-05T20:26:24.613Z,101026.31
2022-09-05T20:29:05.099Z,101041.94
2022-09-05T20:31:34.252Z,101035.84
2022-09-05T20:34:14.946Z,101035.91
2022-09-05T20:43:11.526Z,101035.75
2022-09-05T20:43:21.749Z,101041.34
2022-09-05T20:43:32.213Z,101046.56
2022-09-05T20:45:44.499Z,101037.28
2022-09-05T20:54:13.550Z,101034.97
2022-09-05T20:54:21.142Z,101035.34
2022-09-05T20:54:27.680Z,101028.84
2022-09-05T20:56:53.357Z,101020.69
2022-09-05T20:59:30.658Z,101024.16
2022-09-05T21:02:04.784Z,101017.63
2022-09-05T21:04:33.811Z,101028.34
2022-09-05T21:07:20.933Z,101027.28
2022-09-05T21:09:59.609Z,101032.78
2022-09-05T21:12:42.513Z,101024.63
2022-09-05T21:15:53.282Z,101038.84
2022-09-05T21:18:23.341Z,101038.84
2022-09-05T21:21:02.799Z,101028.50
2022-09-05T21:23:41.408Z,101040.06
2022-09-05T21:26:23.736Z,101037.47
2022-09-05T21:29:08.895Z,101032.78
2022-09-05T21:31:39.805Z,101034.53
2022-09-05T21:34:21.034Z,101032.66
2022-09-05T21:36:50.527Z,101027.03
2022-09-05T21:39:40.004Z,101036.84
2022-09-05T21:42:21.312Z,101035.00
2022-09-05T21:47:42.893Z,101041.69
2022-09-05T21:47:52.380Z,101036.38
2022-09-05T21:50:31.172Z,101033.78
2022-09-05T21:53:25.326Z,101032.28
2022-09-05T21:59:17.034Z,101037.28
2022-09-05T21:59:19.389Z,101042.19
2022-09-05T22:01:51.679Z,101038.69
2022-09-05T22:04:16.726Z,101038.09
2022-09-05T22:06:48.516Z,101038.25
2022-09-05T22:09:20.695Z,101024.84
2022-09-05T22:11:50.419Z,101024.78
2022-09-05T22:14:19.730Z,101021.78
2022-09-05T22:16:50.083Z,101027.19
2022-09-05T22:19:22.909Z,101020.56
2022-09-05T22:21:56.083Z,101020.53
2022-09-05T22:24:24.709Z,101016.03
2022-09-05T22:27:12.455Z,101016.63
2022-09-05T22:29:40.205Z,101012.97
2022-09-05T22:32:07.561Z,101015.81
2022-09-05T22:34:34.333Z,101014.34
2022-09-05T22:37:00.952Z,101004.72
2022-09-05T22:39:37.727Z,101004.06
2022-09-05T22:42:10.762Z,101003.59
2022-09-05T22:44:41.189Z,100999.25
2022-09-05T22:47:09.521Z,101004.56
2022-09-05T22:49:36.723Z,100995.16
2022-09-05T22:52:07.985Z,100998.22
2022-09-05T22:54:35.591Z,100997.94
2022-09-05T22:57:03.394Z,100987.63
2022-09-05T22:59:29.936Z,100982.41
2022-09-05T23:01:56.577Z,100983.34
2022-09-05T23:04:23.537Z,100988.41
2022-09-05T23:06:50.116Z,100980.81
2022-09-05T23:09:16.922Z,100973.47
2022-09-05T23:11:43.502Z,100969.53
2022-09-05T23:14:10.022Z,100986.88
2022-09-05T23:16:36.477Z,100991.66
2022-09-05T23:19:02.994Z,100993.38
2022-09-05T23:21:29.524Z,100989.84
2022-09-05T23:23:56.013Z,100990.41
2022-09-05T23:26:22.507Z,100989.06
2022-09-05T23:28:49.204Z,100986.88
2022-09-05T23:31:15.929Z,100971.34
2022-09-05T23:33:42.692Z,100991.59
2022-09-05T23:36:13.652Z,100997.09
2022-09-05T23:38:43.593Z,100983.97
2022-09-05T23:41:12.921Z,100984.97
2022-09-05T23:43:39.394Z,100986.53
2022-09-05T23:46:06.724Z,100978.09
2022-09-05T23:48:33.369Z,100964.75
2022-09-05T23:51:08.505Z,100961.97
2022-09-05T23:53:35.769Z,100963.16
2022-09-05T23:56:04.156Z,100966.03
2022-09-05T23:58:31.204Z,100958.31
